• Join FlightAware (Why Join?)
  • Login
  • US Flag 
11:46AM EDT


 

Airport Tracker/Info


-or-


 

Live Flight TrackerFlight Track Log ✈ EJA951 ✈ 15-Jul-2013 ✈ KOKC - KTEB

Flight Track Log - Related Links

Times and Time Zones

All times are in EDT time to prevent confusion due to time zone crossing. See the EJA951 flight status page for this flight to view local times or setup timezone preferences in your user account.

Time Position Orientation Groundspeed Altitude Reporting Facility
EDT Latitude Longitude Course Direction KTS MPH feet Rate Location/Type
09:49PM 35.3686 -97.6122 164° South 187 215 2,200  Level Fort Worth Center
09:50PM 35.3103 -97.5917 164° South 215 247 5,500 2,460 Climbing Fort Worth Center
09:52PM 35.3447 -97.3836 78° East 274 315 10,800 2,040 Climbing Kansas City Center
09:53PM 35.3728 -97.2831 71° East 332 382 12,400 1,380 Climbing Kansas City Center
09:54PM 35.4389 -97.1650 55° Northeast 358 412 13,700 1,080 Climbing Kansas City Center
09:55PM 35.5003 -97.0556 55° Northeast 383 441 14,700 1,020 Climbing Kansas City Center
09:56PM 35.5636 -96.9414 56° Northeast 397 457 15,800 1,140 Climbing Kansas City Center
09:57PM 35.6442 -96.8464 44° Northeast 405 466 17,100 1,020 Climbing Kansas City Center
09:58PM 35.7347 -96.7592 38° Northeast 413 475 18,000 1,020 Climbing Kansas City Center
09:59PM 35.8272 -96.6742 37° Northeast 414 476 19,200 1,080 Climbing Kansas City Center
10:00PM 35.9203 -96.5853 38° Northeast 422 486 20,300 960 Climbing Kansas City Center
10:01PM 35.9675 -96.4544 66° East 417 480 21,300 960 Climbing Kansas City Center
10:02PM 36.0239 -96.2914 67° East 423 487 22,300 900 Climbing Kansas City Center
10:04PM 36.0717 -96.1542 67° East 431 496 23,200 780 Climbing Kansas City Center
10:05PM 36.1192 -96.0142 67° East 440 506 24,000 780 Climbing Kansas City Center
10:06PM 36.1678 -95.8722 67° East 447 514 24,900 780 Climbing Kansas City Center
10:07PM 36.2189 -95.7339 65° Northeast 453 521 25,700 780 Climbing Kansas City Center
10:08PM 36.2881 -95.5992 57° Northeast 463 533 26,600 900 Climbing Kansas City Center
10:09PM 36.3536 -95.4631 59° Northeast 462 532 27,600 960 Climbing Kansas City Center
10:10PM 36.4197 -95.3242 59° Northeast 466 536 28,600 1,080 Climbing Kansas City Center
10:11PM 36.4994 -95.1589 59° Northeast 466 536 29,800 1,020 Climbing Kansas City Center
10:12PM 36.5631 -95.0267 59° Northeast 468 539 30,800 900 Climbing Kansas City Center
10:13PM 36.6303 -94.8864 59° Northeast 471 542 31,700 900 Climbing Kansas City Center
10:14PM 36.6981 -94.7456 59° Northeast 473 544 32,700 1,020 Climbing Kansas City Center
10:15PM 36.7656 -94.6019 60° Northeast 477 549 33,800 1,260 Climbing Kansas City Center
10:16PM 36.8333 -94.4603 59° Northeast 477 549 35,400 1,560 Climbing Kansas City Center
10:17PM 36.9131 -94.2908 59° Northeast 472 543 37,000 1,560 Climbing Kansas City Center
10:18PM 36.9800 -94.1500 59° Northeast 471 542 38,600 1,440 Climbing Kansas City Center
10:19PM 37.0439 -94.0103 60° Northeast 466 536 40,100 1,140 Climbing Kansas City Center
10:20PM 37.1086 -93.8706 60° Northeast 464 534 41,000 420 Climbing Kansas City Center
10:21PM 37.1792 -93.7206 59° Northeast 471 542 41,000  Level Kansas City Center
10:22PM 37.2528 -93.5731 58° Northeast 492 566 41,000  Level Kansas City Center
10:23PM 37.3350 -93.4328 54° Northeast 497 572 41,000  Level Kansas City Center
10:24PM 37.4442 -93.3183 40° Northeast 508 585 41,000  Level Kansas City Center
10:25PM 37.5478 -93.1972 43° Northeast 506 582 41,000  Level Kansas City Center
10:26PM 37.6531 -93.0753 43° Northeast 511 588 41,000  Level Kansas City Center
10:27PM 37.7553 -92.9519 44° Northeast 508 585 41,000  Level Kansas City Center
10:28PM 37.8581 -92.8311 43° Northeast 503 579 41,000  Level Kansas City Center
10:29PM 37.9631 -92.7089 43° Northeast 500 575 41,000  Level Kansas City Center
10:30PM 38.0642 -92.5833 44° Northeast 504 580 41,000  Level Kansas City Center
10:31PM 38.1256 -92.4250 64° Northeast 502 578 41,000  Level Kansas City Center
10:32PM 38.1919 -92.2611 63° Northeast 500 575 41,000  Level Kansas City Center
10:33PM 38.2517 -92.1008 65° Northeast 498 573 41,000  Level Kansas City Center
10:34PM 38.3131 -91.9417 64° Northeast 498 573 41,000  Level Kansas City Center
10:35PM 38.3731 -91.7825 64° Northeast 497 572 41,000  Level Kansas City Center
10:36PM 38.4450 -91.5919 64° Northeast 497 572 41,000  Level Kansas City Center
10:37PM 38.5058 -91.4336 64° Northeast 496 571 41,000  Level Kansas City Center
10:38PM 38.5603 -91.2881 64° Northeast 497 572 41,000  Level Kansas City Center
10:39PM 38.6208 -91.1278 64° Northeast 500 575 41,000  Level Kansas City Center
10:40PM 38.6814 -90.9678 64° Northeast 499 574 41,000  Level Kansas City Center
10:41PM 38.7417 -90.8081 64° Northeast 498 573 41,000  Level Kansas City Center
10:42PM 38.8078 -90.6331 64° Northeast 498 573 41,000  Level Kansas City Center
10:43PM 38.8675 -90.4711 65° Northeast 501 577 41,000  Level Kansas City Center
10:44PM 38.9086 -90.3011 73° East 499 574 41,000  Level Kansas City Center
10:45PM 38.9489 -90.1367 72° East 499 574 41,000  Level Kansas City Center
10:46PM 38.9975 -89.9425 72° East 492 566 41,000  Level Kansas City Center
10:47PM 39.0394 -89.7733 72° East 494 568 41,000  Level Kansas City Center
10:49PM 39.0792 -89.6039 73° East 495 570 41,000  Level Kansas City Center
10:50PM 39.1231 -89.4200 73° East 498 573 41,000  Level Kansas City Center
10:51PM 39.1608 -89.2583 73° East 495 570 41,000  Level Kansas City Center
10:52PM 39.2028 -89.0878 72° East 499 574 41,000  Level Kansas City Center
10:53PM 39.2422 -88.9181 73° East 497 572 41,000  Level Kansas City Center
10:54PM 39.2847 -88.7517 72° East 493 567 41,000  Level Kansas City Center
10:55PM 39.3256 -88.5733 73° East 493 567 41,000  Level Kansas City Center
10:56PM 39.3647 -88.4036 73° East 491 565 41,000  Level Kansas City Center
10:57PM 39.4042 -88.2317 73° East 495 570 41,000  Level Kansas City Center
10:58PM 39.4433 -88.0603 73° East 494 568 41,000  Level Kansas City Center
10:59PM 39.4822 -87.8878 74° East 495 570 41,000  Level Kansas City Center
11:00PM 39.5208 -87.7158 74° East 495 570 41,000  Level Kansas City Center
11:01PM 39.5719 -87.5506 68° East 493 567 41,000  Level Kansas City Center
11:02PM 39.6611 -87.3003 65° Northeast 497 572 41,000  Level Indianapolis Center
11:04PM 39.7433 -87.0742 65° Northeast 494 568 41,000  Level Indianapolis Center
11:05PM 39.8006 -86.9108 65° Northeast 495 570 41,000  Level Indianapolis Center
11:06PM 39.8572 -86.7492 65° Northeast 492 566 41,000  Level Indianapolis Center
11:07PM 39.9161 -86.5858 65° Northeast 494 568 41,000  Level Indianapolis Center
11:08PM 39.9731 -86.4206 66° East 494 568 41,000  Level Indianapolis Center
11:09PM 40.0306 -86.2556 65° Northeast 493 567 41,000  Level Indianapolis Center
11:10PM 40.0969 -86.0586 66° East 491 565 41,000  Level Indianapolis Center
11:11PM 40.1511 -85.8967 66° East 487 560 41,000  Level Indianapolis Center
11:12PM 40.2064 -85.7361 66° East 486 559 41,000  Level Indianapolis Center
11:13PM 40.2594 -85.5756 67° East 482 555 41,000  Level Indianapolis Center
11:14PM 40.3128 -85.4142 67° East 484 557 41,000  Level Indianapolis Center
11:15PM 40.3533 -85.2472 72° East 482 555 41,000  Level Indianapolis Center
11:16PM 40.3939 -85.0797 72° East 483 556 41,000  Level Indianapolis Center
11:17PM 40.4331 -84.9119 73° East 484 557 41,000  Level Indianapolis Center
11:18PM 40.4811 -84.7156 72° East 487 560 41,000  Level Indianapolis Center
11:19PM 40.5211 -84.5436 73° East 486 559 41,000  Level Indianapolis Center
11:20PM 40.5608 -84.3731 73° East 483 556 41,000  Level Indianapolis Center
11:21PM 40.6006 -84.2011 73° East 487 560 41,000  Level Indianapolis Center
11:22PM 40.6400 -84.0297 73° East 485 558 41,000  Level Indianapolis Center
11:23PM 40.6792 -83.8569 73° East 487 560 41,000  Level Indianapolis Center
11:24PM 40.7186 -83.6839 73° East 485 558 41,000  Level Indianapolis Center
11:25PM 40.7569 -83.5092 74° East 490 564 41,000  Level Indianapolis Center
11:26PM 40.7931 -83.3456 74° East 488 562 41,000  Level Indianapolis Center
11:27PM 40.8319 -83.1700 74° East 493 567 41,000  Level Indianapolis Center
11:28PM 40.8697 -82.9961 74° East 490 564 41,000  Level Indianapolis Center
11:29PM 40.8944 -82.8822 74° East 487 560 41,000  Level Cleveland Center
11:30PM 40.9311 -82.7075 74° East 487 560 41,000  Level Cleveland Center
11:31PM 40.9697 -82.5328 74° East 492 566 41,000  Level Cleveland Center
11:32PM 41.0058 -82.3606 74° East 485 558 41,000  Level Cleveland Center
11:33PM 41.0442 -82.1800 74° East 485 558 41,000  Level Cleveland Center
11:34PM 41.0753 -82.0264 75° East 489 563 41,000  Level Cleveland Center
11:35PM 41.1108 -81.8508 75° East 489 563 41,000  Level Cleveland Center
11:36PM 41.1544 -81.6669 72° East 507 583 41,000  Level Cleveland Center
11:37PM 41.1892 -81.4908 75° East 502 578 41,000  Level Cleveland Center
11:38PM 41.2261 -81.2953 76° East 495 570 41,000  Level Cleveland Center
11:39PM 41.2625 -81.1189 75° East 488 562 41,000  Level Cleveland Center
11:40PM 41.2944 -80.9561 75° East 488 562 41,000  Level Cleveland Center
11:41PM 41.3303 -80.7822 75° East 488 562 41,000  Level Cleveland Center
11:42PM 41.3639 -80.6053 76° East 488 562 41,000  Level Cleveland Center
11:43PM 41.4011 -80.4253 75° East 488 562 41,000  Level Cleveland Center
11:44PM 41.4403 -80.2314 75° East 488 562 41,000  Level Cleveland Center
11:45PM 41.4731 -80.0511 76° East 488 562 41,000  Level Cleveland Center
11:46PM 41.5056 -79.8733 76° East 488 562 41,000  Level Cleveland Center
11:47PM 41.5064 -79.6903 90° East 488 562 41,000  Level Cleveland Center
11:48PM 41.4817 -79.5106 100° East 483 556 41,000  Level Cleveland Center
11:49PM 41.4569 -79.3225 100° East 495 570 41,000  Level Cleveland Center
11:50PM 41.4339 -79.1403 100° East 501 577 41,000  Level Cleveland Center
11:51PM 41.4106 -78.9581 100° East 501 577 41,000  Level Cleveland Center
11:53PM 41.3611 -78.5694 99° East 505 581 41,000  Level New York Center
11:54PM 41.3406 -78.4039 99° East 512 589 41,000  Level New York Center
11:55PM 41.3150 -78.2186 100° East 512 589 41,000  Level New York Center
11:56PM 41.2886 -78.0361 101° East 512 589 41,000  Level New York Center
11:57PM 41.2622 -77.8536 101° East 512 589 41,000  Level New York Center
11:58PM 41.2375 -77.6717 100° East 512 589 41,000  Level New York Center
11:59PM 41.2125 -77.4900 100° East 507 583 41,000  Level New York Center
12:00AM 41.1819 -77.2911 101° East 502 578 41,000  Level New York Center
12:01AM 41.1561 -77.1122 101° East 496 571 41,000 -840 Level New York Center
12:02AM 41.1281 -76.9331 102° East 496 571 39,400 -2,100 Descending New York Center
12:03AM 41.1000 -76.7517 102° East 496 571 36,800 -1,740 Descending New York Center
12:04AM 41.0736 -76.5703 101° East 496 571 36,000 -720 Descending New York Center
12:05AM 41.0450 -76.3864 102° East 496 571 35,400 -1,800 Descending New York Center
12:06AM 41.0244 -76.2414 101° East 496 571 32,400 -4,440 Descending New York Center
12:07AM 40.9922 -76.0328 101° East 517 595 26,600 -4,260 Descending New York Center
12:08AM 40.9664 -75.8631 101° East 504 580 24,000 -2,760 Descending New York Center
12:09AM 40.9403 -75.6936 101° East 478 550 21,200 -2,820 Descending New York Center
12:10AM 40.9158 -75.5297 101° East 462 532 18,500 -2,700 Descending New York Center
12:11AM 40.8872 -75.3575 102° East 448 516 15,800 -2,520 Descending New York Center
12:12AM 40.8633 -75.2161 103° East 424 488 13,500 -2,100 Descending New York Center
12:13AM 40.8467 -75.1025 101° East 367 422 11,500 -1,800 Descending New York Center
12:14AM 40.8281 -74.9889 102° East 327 376 9,900 -1,320 Descending New York Center
12:15AM 40.8111 -74.8728 101° East 298 343 9,000 -1,080 Descending New York Center
12:16AM 40.8169 -74.7689 86° East 290 334 7,800 -1,380 Descending New York Center
12:17AM 40.8286 -74.6681 81° East 290 334 6,300 -1,680 Descending New York Center
12:18AM 40.8333 -74.6000 85° East 275 316 5,000 -1,680 Descending New York TRACON
12:19AM 40.8167 -74.5000 102° East 277 319 3,500 -1,200 Descending New York TRACON
12:20AM 40.7667 -74.4167 128° Southeast 250 288 2,600 -720 Descending New York TRACON
12:21AM 40.7500 -74.3500 108° East 223 257 2,100 -300 Descending New York TRACON
12:22AM 40.7167 -74.2833 123° Southeast 190 219 2,000 -120 Descending New York TRACON
12:23AM 40.7333 -74.2333 66° East 170 196 1,900 -300 Descending New York TRACON
12:24AM 40.7667 -74.2000 37° Northeast 175 201 1,500 -300 Descending New York TRACON
12:25AM 40.8000 -74.1500 49° Northeast 155 178 1,400 -360 Descending New York TRACON
12:26AM 40.8167 -74.1167 57° Northeast 129 148 800 -600 Descending New York TRACON
12:26AM 40.8333 -74.0833 57° Northeast 133 153 300 -660 Descending New York TRACON
12:28AM 40.8500 -74.0500 50° Northeast  Level FlightAware Approximate
12:35AM 40.8501 -74.0608 50° Northeast  Level Estimated
12:36AM 40.8501 -74.0608 50° Northeast  Level Estimated